sensor_id;sensor_type;location;lat;lon;timestamp;pressure;altitude;pressure_sealevel;temperature;humidity
23318;BME280;11831;55.918;37.746;2022-07-17T00:01:28;99255.09;;;19.13;0.00
23318;BME280;11831;55.918;37.746;2022-07-17T00:03:54;99263.13;;;18.70;0.00
23318;BME280;11831;55.918;37.746;2022-07-17T00:06:21;99261.69;;;18.78;0.00
23318;BME280;11831;55.918;37.746;2022-07-17T00:08:47;99256.09;;;18.93;0.00
23318;BME280;11831;55.918;37.746;2022-07-17T00:11:13;99266.66;;;18.95;0.00
23318;BME280;11831;55.918;37.746;2022-07-17T00:13:39;99264.75;;;18.95;0.00
23318;BME280;11831;55.918;37.746;2022-07-17T00:16:06;99264.94;;;19.04;0.00
23318;BME280;11831;55.918;37.746;2022-07-17T00:18:32;99263.28;;;19.08;0.00
23318;BME280;11831;55.918;37.746;2022-07-17T00:20:58;99264.25;;;19.17;0.00
23318;BME280;11831;55.918;37.746;2022-07-17T00:23:24;99266.59;;;19.23;0.00
23318;BME280;11831;55.918;37.746;2022-07-17T00:25:50;99256.19;;;19.12;0.00
23318;BME280;11831;55.918;37.746;2022-07-17T00:28:17;99259.69;;;19.36;0.00
23318;BME280;11831;55.918;37.746;2022-07-17T00:30:43;99258.22;;;19.44;0.00
23318;BME280;11831;55.918;37.746;2022-07-17T00:33:09;99261.97;;;19.48;0.00
23318;BME280;11831;55.918;37.746;2022-07-17T00:35:35;99255.75;;;19.71;0.00
23318;BME280;11831;55.918;37.746;2022-07-17T00:38:01;99251.72;;;19.45;0.00
23318;BME280;11831;55.918;37.746;2022-07-17T00:40:27;99256.78;;;19.51;0.00
23318;BME280;11831;55.918;37.746;2022-07-17T00:42:53;99255.69;;;19.52;0.00
23318;BME280;11831;55.918;37.746;2022-07-17T00:45:20;99251.03;;;19.77;0.00
23318;BME280;11831;55.918;37.746;2022-07-17T00:47:55;99257.06;;;19.74;0.00
23318;BME280;11831;55.918;37.746;2022-07-17T00:50:22;99266.22;;;19.78;0.00
23318;BME280;11831;55.918;37.746;2022-07-17T00:52:49;99256.91;;;19.65;0.00
23318;BME280;11831;55.918;37.746;2022-07-17T00:55:16;99255.75;;;19.47;0.00
23318;BME280;11831;55.918;37.746;2022-07-17T00:57:43;99254.03;;;19.33;0.00
23318;BME280;11831;55.918;37.746;2022-07-17T01:00:11;99254.28;;;19.36;0.00
23318;BME280;11831;55.918;37.746;2022-07-17T01:02:37;99247.78;;;19.56;0.00
23318;BME280;11831;55.918;37.746;2022-07-17T01:05:04;99246.87;;;19.84;0.00
23318;BME280;11831;55.918;37.746;2022-07-17T01:07:30;99242.84;;;20.01;0.00
23318;BME280;11831;55.918;37.746;2022-07-17T01:09:56;99243.84;;;20.05;0.00
23318;BME280;11831;55.918;37.746;2022-07-17T01:12:23;99249.41;;;20.13;0.00
23318;BME280;11831;55.918;37.746;2022-07-17T01:14:51;99250.12;;;20.19;0.00
23318;BME280;11831;55.918;37.746;2022-07-17T01:17:17;99251.19;;;20.23;0.00
23318;BME280;11831;55.918;37.746;2022-07-17T01:19:43;99255.81;;;20.23;0.00
23318;BME280;11831;55.918;37.746;2022-07-17T01:22:10;99248.22;;;20.38;0.00
23318;BME280;11831;55.918;37.746;2022-07-17T01:24:39;99253.37;;;20.40;0.00
23318;BME280;11831;55.918;37.746;2022-07-17T01:27:05;99250.28;;;20.28;0.00
23318;BME280;11831;55.918;37.746;2022-07-17T01:29:31;99244.94;;;20.23;0.00
23318;BME280;11831;55.918;37.746;2022-07-17T01:31:57;99255.13;;;20.31;0.00
23318;BME280;11831;55.918;37.746;2022-07-17T01:34:24;99253.75;;;20.14;0.00
23318;BME280;11831;55.918;37.746;2022-07-17T01:36:50;99251.31;;;20.13;0.00
23318;BME280;11831;55.918;37.746;2022-07-17T01:39:16;99261.00;;;20.19;0.00
23318;BME280;11831;55.918;37.746;2022-07-17T01:41:42;99260.88;;;20.10;0.00
23318;BME280;11831;55.918;37.746;2022-07-17T01:44:08;99263.47;;;20.34;0.00
23318;BME280;11831;55.918;37.746;2022-07-17T01:46:34;99274.84;;;20.36;0.00
23318;BME280;11831;55.918;37.746;2022-07-17T01:49:00;99272.81;;;20.47;0.00
23318;BME280;11831;55.918;37.746;2022-07-17T01:51:27;99271.69;;;20.48;0.00
23318;BME280;11831;55.918;37.746;2022-07-17T01:53:53;99278.69;;;20.54;0.00
23318;BME280;11831;55.918;37.746;2022-07-17T01:56:19;99276.47;;;20.56;0.00
23318;BME280;11831;55.918;37.746;2022-07-17T01:58:45;99268.31;;;20.37;0.00
23318;BME280;11831;55.918;37.746;2022-07-17T02:01:11;99266.78;;;20.50;0.00
23318;BME280;11831;55.918;37.746;2022-07-17T02:03:37;99270.09;;;20.47;0.00
23318;BME280;11831;55.918;37.746;2022-07-17T02:06:03;99272.56;;;20.62;0.00
23318;BME280;11831;55.918;37.746;2022-07-17T02:08:29;99270.94;;;20.61;0.00
23318;BME280;11831;55.918;37.746;2022-07-17T02:10:55;99273.66;;;20.61;0.00
23318;BME280;11831;55.918;37.746;2022-07-17T02:13:21;99269.84;;;20.62;0.00
23318;BME280;11831;55.918;37.746;2022-07-17T02:15:47;99269.03;;;20.62;0.00
23318;BME280;11831;55.918;37.746;2022-07-17T02:18:13;99267.16;;;20.43;0.00
23318;BME280;11831;55.918;37.746;2022-07-17T02:20:40;99270.84;;;20.53;0.00
23318;BME280;11831;55.918;37.746;2022-07-17T02:23:07;99275.50;;;20.47;0.00
23318;BME280;11831;55.918;37.746;2022-07-17T02:25:33;99272.16;;;20.17;0.00
23318;BME280;11831;55.918;37.746;2022-07-17T02:28:00;99283.53;;;19.82;0.00
23318;BME280;11831;55.918;37.746;2022-07-17T02:30:26;99281.56;;;20.06;0.00
23318;BME280;11831;55.918;37.746;2022-07-17T02:32:52;99275.97;;;20.16;0.00
23318;BME280;11831;55.918;37.746;2022-07-17T02:35:18;99274.50;;;20.24;0.00
23318;BME280;11831;55.918;37.746;2022-07-17T02:37:44;99268.13;;;20.15;0.00
23318;BME280;11831;55.918;37.746;2022-07-17T02:40:11;99275.81;;;19.89;0.00
23318;BME280;11831;55.918;37.746;2022-07-17T02:42:38;99269.87;;;20.25;0.00
23318;BME280;11831;55.918;37.746;2022-07-17T02:45:05;99269.66;;;19.83;0.00
23318;BME280;11831;55.918;37.746;2022-07-17T02:47:33;99263.16;;;19.66;0.00
23318;BME280;11831;55.918;37.746;2022-07-17T02:50:00;99265.94;;;19.98;0.00
23318;BME280;11831;55.918;37.746;2022-07-17T02:52:30;99267.78;;;20.22;0.00
23318;BME280;11831;55.918;37.746;2022-07-17T02:54:56;99274.22;;;20.26;0.00
23318;BME280;11831;55.918;37.746;2022-07-17T02:57:23;99272.75;;;20.14;0.00
23318;BME280;11831;55.918;37.746;2022-07-17T02:59:49;99288.25;;;19.95;0.00
23318;BME280;11831;55.918;37.746;2022-07-17T03:02:15;99302.16;;;19.70;0.00
23318;BME280;11831;55.918;37.746;2022-07-17T03:04:41;99304.56;;;19.47;0.00
23318;BME280;11831;55.918;37.746;2022-07-17T03:07:07;99295.41;;;20.05;0.00
23318;BME280;11831;55.918;37.746;2022-07-17T03:09:34;99299.53;;;20.02;0.00
23318;BME280;11831;55.918;37.746;2022-07-17T03:12:00;99299.75;;;20.06;0.00
23318;BME280;11831;55.918;37.746;2022-07-17T03:14:26;99293.31;;;20.21;0.00
23318;BME280;11831;55.918;37.746;2022-07-17T03:16:52;99301.97;;;20.23;0.00
23318;BME280;11831;55.918;37.746;2022-07-17T03:19:19;99294.84;;;20.27;0.00
23318;BME280;11831;55.918;37.746;2022-07-17T03:21:45;99290.34;;;20.36;0.00
23318;BME280;11831;55.918;37.746;2022-07-17T03:24:11;99290.00;;;20.42;0.00
23318;BME280;11831;55.918;37.746;2022-07-17T03:26:37;99295.97;;;20.39;0.00
23318;BME280;11831;55.918;37.746;2022-07-17T03:29:04;99290.50;;;20.44;0.00
23318;BME280;11831;55.918;37.746;2022-07-17T03:31:30;99288.34;;;20.60;0.00
23318;BME280;11831;55.918;37.746;2022-07-17T03:33:56;99294.28;;;20.62;0.00
23318;BME280;11831;55.918;37.746;2022-07-17T03:36:22;99290.41;;;20.50;0.00
23318;BME280;11831;55.918;37.746;2022-07-17T03:38:48;99287.03;;;20.58;0.00
23318;BME280;11831;55.918;37.746;2022-07-17T03:41:15;99290.47;;;20.63;0.00
23318;BME280;11831;55.918;37.746;2022-07-17T03:43:41;99293.09;;;20.68;0.00
23318;BME280;11831;55.918;37.746;2022-07-17T03:46:08;99289.78;;;20.71;0.00
23318;BME280;11831;55.918;37.746;2022-07-17T03:48:34;99294.09;;;20.72;0.00
23318;BME280;11831;55.918;37.746;2022-07-17T03:51:00;99303.06;;;20.73;0.00
23318;BME280;11831;55.918;37.746;2022-07-17T03:53:45;99297.84;;;20.76;0.00
23318;BME280;11831;55.918;37.746;2022-07-17T03:56:11;99301.34;;;20.77;0.00
23318;BME280;11831;55.918;37.746;2022-07-17T03:58:37;99305.47;;;20.74;0.00
23318;BME280;11831;55.918;37.746;2022-07-17T04:01:03;99304.28;;;20.81;0.00
23318;BME280;11831;55.918;37.746;2022-07-17T04:03:29;99307.34;;;20.93;0.00
23318;BME280;11831;55.918;37.746;2022-07-17T04:05:55;99303.72;;;20.84;0.00
23318;BME280;11831;55.918;37.746;2022-07-17T04:08:21;99300.81;;;20.94;0.00
23318;BME280;11831;55.918;37.746;2022-07-17T04:10:48;99299.00;;;21.03;0.00
23318;BME280;11831;55.918;37.746;2022-07-17T04:13:14;99296.47;;;20.93;0.00
23318;BME280;11831;55.918;37.746;2022-07-17T04:15:40;99287.75;;;20.63;0.00
23318;BME280;11831;55.918;37.746;2022-07-17T04:18:24;99295.31;;;19.72;0.00
23318;BME280;11831;55.918;37.746;2022-07-17T04:20:52;99291.06;;;19.85;0.00
23318;BME280;11831;55.918;37.746;2022-07-17T04:23:19;99294.66;;;19.62;0.00
23318;BME280;11831;55.918;37.746;2022-07-17T04:25:45;99293.34;;;19.78;0.00
23318;BME280;11831;55.918;37.746;2022-07-17T04:28:12;99299.66;;;19.26;0.00
23318;BME280;11831;55.918;37.746;2022-07-17T04:30:38;99303.75;;;18.94;0.00
23318;BME280;11831;55.918;37.746;2022-07-17T04:33:04;99318.59;;;18.73;0.00
23318;BME280;11831;55.918;37.746;2022-07-17T04:35:31;99312.69;;;18.95;0.00
23318;BME280;11831;55.918;37.746;2022-07-17T04:37:57;99310.66;;;18.81;0.00
23318;BME280;11831;55.918;37.746;2022-07-17T04:40:23;99309.19;;;18.94;0.00
23318;BME280;11831;55.918;37.746;2022-07-17T04:42:49;99314.56;;;18.70;0.00
23318;BME280;11831;55.918;37.746;2022-07-17T04:45:15;99315.81;;;18.44;0.00
23318;BME280;11831;55.918;37.746;2022-07-17T04:47:42;99327.34;;;18.20;0.00
23318;BME280;11831;55.918;37.746;2022-07-17T04:50:09;99319.03;;;18.85;0.00
23318;BME280;11831;55.918;37.746;2022-07-17T04:52:35;99316.41;;;18.36;0.00
23318;BME280;11831;55.918;37.746;2022-07-17T04:55:01;99305.34;;;18.37;0.00
23318;BME280;11831;55.918;37.746;2022-07-17T04:57:29;99296.81;;;19.12;0.00
23318;BME280;11831;55.918;37.746;2022-07-17T04:59:55;99290.53;;;19.16;0.00
23318;BME280;11831;55.918;37.746;2022-07-17T05:02:22;99293.69;;;19.23;0.00
23318;BME280;11831;55.918;37.746;2022-07-17T05:04:49;99299.25;;;19.13;0.00
23318;BME280;11831;55.918;37.746;2022-07-17T05:07:15;99289.66;;;19.45;0.00
23318;BME280;11831;55.918;37.746;2022-07-17T05:09:41;99282.00;;;19.04;0.00
23318;BME280;11831;55.918;37.746;2022-07-17T05:12:07;99286.00;;;19.60;0.00
23318;BME280;11831;55.918;37.746;2022-07-17T05:14:34;99276.75;;;19.37;0.00
23318;BME280;11831;55.918;37.746;2022-07-17T05:17:00;99287.56;;;19.84;0.00
23318;BME280;11831;55.918;37.746;2022-07-17T05:19:27;99274.06;;;19.79;0.00
23318;BME280;11831;55.918;37.746;2022-07-17T05:21:53;99282.19;;;19.37;0.00
23318;BME280;11831;55.918;37.746;2022-07-17T05:24:19;99277.66;;;19.75;0.00
23318;BME280;11831;55.918;37.746;2022-07-17T05:26:45;99277.66;;;19.51;0.00
23318;BME280;11831;55.918;37.746;2022-07-17T05:29:11;99287.47;;;19.71;0.00
23318;BME280;11831;55.918;37.746;2022-07-17T05:31:37;99283.22;;;19.83;0.00
23318;BME280;11831;55.918;37.746;2022-07-17T05:34:03;99288.88;;;19.87;0.00
23318;BME280;11831;55.918;37.746;2022-07-17T05:36:29;99279.47;;;20.36;0.00
23318;BME280;11831;55.918;37.746;2022-07-17T05:38:55;99283.38;;;20.30;0.00
23318;BME280;11831;55.918;37.746;2022-07-17T05:41:22;99283.75;;;20.23;0.00
23318;BME280;11831;55.918;37.746;2022-07-17T05:43:48;99286.81;;;20.87;0.00
23318;BME280;11831;55.918;37.746;2022-07-17T05:46:14;99290.50;;;21.37;0.00
23318;BME280;11831;55.918;37.746;2022-07-17T05:48:40;99289.28;;;21.29;0.00
23318;BME280;11831;55.918;37.746;2022-07-17T05:51:06;99283.41;;;21.08;0.00
23318;BME280;11831;55.918;37.746;2022-07-17T05:53:32;99280.53;;;20.72;0.00
23318;BME280;11831;55.918;37.746;2022-07-17T05:55:59;99279.78;;;20.53;0.00
23318;BME280;11831;55.918;37.746;2022-07-17T05:58:25;99276.59;;;20.78;0.00
23318;BME280;11831;55.918;37.746;2022-07-17T06:00:51;99280.00;;;21.17;0.00
23318;BME280;11831;55.918;37.746;2022-07-17T06:03:19;99285.44;;;21.17;0.00
23318;BME280;11831;55.918;37.746;2022-07-17T06:05:45;99280.94;;;21.26;0.00
23318;BME280;11831;55.918;37.746;2022-07-17T06:08:11;99270.78;;;22.09;0.00
23318;BME280;11831;55.918;37.746;2022-07-17T06:10:37;99270.22;;;22.20;0.00
23318;BME280;11831;55.918;37.746;2022-07-17T06:13:04;99269.78;;;21.91;0.00
23318;BME280;11831;55.918;37.746;2022-07-17T06:15:30;99272.50;;;22.27;0.00
23318;BME280;11831;55.918;37.746;2022-07-17T06:18:00;99268.13;;;22.40;0.00
23318;BME280;11831;55.918;37.746;2022-07-17T06:20:27;99273.88;;;22.16;0.00
23318;BME280;11831;55.918;37.746;2022-07-17T06:22:53;99259.88;;;22.31;0.00
23318;BME280;11831;55.918;37.746;2022-07-17T06:25:19;99262.84;;;21.71;0.00
23318;BME280;11831;55.918;37.746;2022-07-17T06:27:45;99256.94;;;21.55;0.00
23318;BME280;11831;55.918;37.746;2022-07-17T06:30:12;99262.97;;;21.66;0.00
23318;BME280;11831;55.918;37.746;2022-07-17T06:32:38;99258.12;;;21.77;0.00
23318;BME280;11831;55.918;37.746;2022-07-17T06:35:05;99267.53;;;21.93;0.00
23318;BME280;11831;55.918;37.746;2022-07-17T06:37:31;99270.53;;;22.19;0.00
23318;BME280;11831;55.918;37.746;2022-07-17T06:39:57;99270.88;;;21.90;0.00
23318;BME280;11831;55.918;37.746;2022-07-17T06:42:24;99272.38;;;22.10;0.00
23318;BME280;11831;55.918;37.746;2022-07-17T06:44:50;99271.63;;;22.18;0.00
23318;BME280;11831;55.918;37.746;2022-07-17T06:47:16;99264.81;;;22.29;0.00
23318;BME280;11831;55.918;37.746;2022-07-17T06:49:42;99266.94;;;22.10;0.00
23318;BME280;11831;55.918;37.746;2022-07-17T06:52:09;99258.44;;;21.75;0.00
23318;BME280;11831;55.918;37.746;2022-07-17T06:54:35;99254.94;;;21.97;0.00
23318;BME280;11831;55.918;37.746;2022-07-17T06:57:01;99260.00;;;22.48;0.00
23318;BME280;11831;55.918;37.746;2022-07-17T06:59:28;99255.63;;;22.02;0.00
23318;BME280;11831;55.918;37.746;2022-07-17T07:01:54;99250.38;;;22.73;0.00
23318;BME280;11831;55.918;37.746;2022-07-17T07:04:20;99258.44;;;22.56;0.00
23318;BME280;11831;55.918;37.746;2022-07-17T07:06:46;99253.03;;;22.87;0.00
23318;BME280;11831;55.918;37.746;2022-07-17T07:09:12;99252.03;;;23.14;0.00
23318;BME280;11831;55.918;37.746;2022-07-17T07:11:38;99256.28;;;22.67;0.00
23318;BME280;11831;55.918;37.746;2022-07-17T07:14:05;99265.22;;;22.89;0.00
23318;BME280;11831;55.918;37.746;2022-07-17T07:16:32;99258.72;;;22.99;0.00
23318;BME280;11831;55.918;37.746;2022-07-17T07:18:58;99264.09;;;22.90;0.00
23318;BME280;11831;55.918;37.746;2022-07-17T07:21:25;99257.78;;;23.04;0.00
23318;BME280;11831;55.918;37.746;2022-07-17T07:23:52;99262.97;;;23.71;0.00
23318;BME280;11831;55.918;37.746;2022-07-17T07:26:19;99253.03;;;23.92;0.00
23318;BME280;11831;55.918;37.746;2022-07-17T07:28:45;99263.78;;;23.71;0.00
23318;BME280;11831;55.918;37.746;2022-07-17T07:31:11;99263.13;;;23.74;0.00
23318;BME280;11831;55.918;37.746;2022-07-17T07:33:37;99255.63;;;24.23;0.00
23318;BME280;11831;55.918;37.746;2022-07-17T07:36:04;99253.66;;;23.72;0.00
23318;BME280;11831;55.918;37.746;2022-07-17T07:38:30;99254.31;;;23.95;0.00
23318;BME280;11831;55.918;37.746;2022-07-17T07:40:57;99266.56;;;23.40;0.00
23318;BME280;11831;55.918;37.746;2022-07-17T07:43:23;99266.69;;;23.27;0.00
23318;BME280;11831;55.918;37.746;2022-07-17T07:45:50;99261.06;;;23.89;0.00
23318;BME280;11831;55.918;37.746;2022-07-17T07:48:16;99263.34;;;23.30;0.00
23318;BME280;11831;55.918;37.746;2022-07-17T07:50:42;99254.63;;;23.76;0.00
23318;BME280;11831;55.918;37.746;2022-07-17T07:53:09;99238.91;;;24.33;0.00
23318;BME280;11831;55.918;37.746;2022-07-17T07:55:35;99243.84;;;24.49;0.00
23318;BME280;11831;55.918;37.746;2022-07-17T07:58:04;99246.94;;;24.21;0.00
23318;BME280;11831;55.918;37.746;2022-07-17T08:00:31;99248.53;;;24.48;0.00
23318;BME280;11831;55.918;37.746;2022-07-17T08:02:57;99259.78;;;23.95;0.00
23318;BME280;11831;55.918;37.746;2022-07-17T08:05:24;99264.16;;;23.47;0.00
23318;BME280;11831;55.918;37.746;2022-07-17T08:07:50;99260.56;;;23.87;0.00
23318;BME280;11831;55.918;37.746;2022-07-17T08:10:16;99266.97;;;23.73;0.00
23318;BME280;11831;55.918;37.746;2022-07-17T08:12:42;99266.53;;;23.97;0.00
23318;BME280;11831;55.918;37.746;2022-07-17T08:15:09;99263.28;;;23.87;0.00
23318;BME280;11831;55.918;37.746;2022-07-17T08:17:35;99254.91;;;25.25;0.00
23318;BME280;11831;55.918;37.746;2022-07-17T08:20:02;99266.91;;;25.41;0.00
23318;BME280;11831;55.918;37.746;2022-07-17T08:22:29;99256.09;;;24.51;0.00
23318;BME280;11831;55.918;37.746;2022-07-17T08:24:55;99263.72;;;25.60;0.00
23318;BME280;11831;55.918;37.746;2022-07-17T08:27:21;99260.72;;;25.53;0.00
23318;BME280;11831;55.918;37.746;2022-07-17T08:29:48;99262.03;;;25.47;0.00
23318;BME280;11831;55.918;37.746;2022-07-17T08:32:14;99260.91;;;25.10;0.00
23318;BME280;11831;55.918;37.746;2022-07-17T08:34:40;99263.78;;;25.51;0.00
23318;BME280;11831;55.918;37.746;2022-07-17T08:37:06;99262.72;;;25.64;0.00
23318;BME280;11831;55.918;37.746;2022-07-17T08:39:32;99267.84;;;25.16;0.00
23318;BME280;11831;55.918;37.746;2022-07-17T08:42:01;99259.84;;;25.31;0.00
23318;BME280;11831;55.918;37.746;2022-07-17T08:44:27;99263.72;;;25.60;0.00
23318;BME280;11831;55.918;37.746;2022-07-17T08:46:53;99265.47;;;25.64;0.00
23318;BME280;11831;55.918;37.746;2022-07-17T08:49:20;99254.91;;;26.05;0.00
23318;BME280;11831;55.918;37.746;2022-07-17T08:51:48;99259.19;;;25.34;0.00
23318;BME280;11831;55.918;37.746;2022-07-17T08:54:14;99277.00;;;25.49;0.00
23318;BME280;11831;55.918;37.746;2022-07-17T08:56:40;99262.44;;;25.57;0.00
23318;BME280;11831;55.918;37.746;2022-07-17T08:59:07;99266.06;;;25.49;0.00
23318;BME280;11831;55.918;37.746;2022-07-17T09:01:33;99264.00;;;25.37;0.00
23318;BME280;11831;55.918;37.746;2022-07-17T09:04:00;99262.22;;;25.71;0.00
23318;BME280;11831;55.918;37.746;2022-07-17T09:06:32;99273.41;;;25.87;0.00
23318;BME280;11831;55.918;37.746;2022-07-17T09:11:28;99264.56;;;25.22;0.00
23318;BME280;11831;55.918;37.746;2022-07-17T09:13:55;99266.59;;;25.72;0.00
23318;BME280;11831;55.918;37.746;2022-07-17T09:16:22;99269.34;;;24.87;0.00
23318;BME280;11831;55.918;37.746;2022-07-17T09:18:52;99271.03;;;24.54;0.00
23318;BME280;11831;55.918;37.746;2022-07-17T09:21:22;99284.03;;;24.48;0.00
23318;BME280;11831;55.918;37.746;2022-07-17T09:24:02;99283.09;;;24.53;0.00
23318;BME280;11831;55.918;37.746;2022-07-17T09:26:28;99278.28;;;24.32;0.00
23318;BME280;11831;55.918;37.746;2022-07-17T09:28:55;99277.94;;;24.16;0.00
23318;BME280;11831;55.918;37.746;2022-07-17T09:31:28;99291.94;;;24.41;0.00
23318;BME280;11831;55.918;37.746;2022-07-17T09:33:55;99290.16;;;24.19;0.00
23318;BME280;11831;55.918;37.746;2022-07-17T09:36:21;99281.00;;;24.41;0.00
23318;BME280;11831;55.918;37.746;2022-07-17T09:38:48;99286.78;;;24.39;0.00
23318;BME280;11831;55.918;37.746;2022-07-17T09:41:19;99290.44;;;23.74;0.00
23318;BME280;11831;55.918;37.746;2022-07-17T09:43:55;99288.69;;;24.04;0.00
23318;BME280;11831;55.918;37.746;2022-07-17T09:46:24;99297.97;;;23.86;0.00
23318;BME280;11831;55.918;37.746;2022-07-17T09:48:51;99314.72;;;22.60;0.00
23318;BME280;11831;55.918;37.746;2022-07-17T09:51:19;99296.44;;;22.61;0.00
23318;BME280;11831;55.918;37.746;2022-07-17T09:53:46;99292.91;;;22.60;0.00
23318;BME280;11831;55.918;37.746;2022-07-17T09:56:17;99299.31;;;22.56;0.00
23318;BME280;11831;55.918;37.746;2022-07-17T09:58:44;99291.19;;;22.20;0.00
23318;BME280;11831;55.918;37.746;2022-07-17T10:01:12;99292.19;;;22.46;0.00
23318;BME280;11831;55.918;37.746;2022-07-17T10:03:39;99289.44;;;23.22;0.00
23318;BME280;11831;55.918;37.746;2022-07-17T10:06:05;99290.34;;;23.09;0.00
23318;BME280;11831;55.918;37.746;2022-07-17T10:08:31;99295.72;;;23.62;0.00
23318;BME280;11831;55.918;37.746;2022-07-17T10:10:57;99286.69;;;23.13;0.00
23318;BME280;11831;55.918;37.746;2022-07-17T10:13:24;99293.47;;;23.64;0.00
23318;BME280;11831;55.918;37.746;2022-07-17T10:15:50;99292.81;;;23.59;0.00
23318;BME280;11831;55.918;37.746;2022-07-17T10:18:17;99291.72;;;23.77;0.00
23318;BME280;11831;55.918;37.746;2022-07-17T10:20:43;99285.00;;;23.92;0.00
23318;BME280;11831;55.918;37.746;2022-07-17T10:23:13;99278.09;;;24.55;0.00
23318;BME280;11831;55.918;37.746;2022-07-17T10:25:39;99275.44;;;24.93;0.00
23318;BME280;11831;55.918;37.746;2022-07-17T10:28:05;99284.09;;;25.03;0.00
23318;BME280;11831;55.918;37.746;2022-07-17T10:30:33;99285.34;;;25.53;0.00
23318;BME280;11831;55.918;37.746;2022-07-17T10:33:00;99288.16;;;25.65;0.00
23318;BME280;11831;55.918;37.746;2022-07-17T10:35:27;99290.22;;;25.97;0.00
23318;BME280;11831;55.918;37.746;2022-07-17T10:37:57;99279.75;;;26.20;0.00
23318;BME280;11831;55.918;37.746;2022-07-17T10:40:25;99282.03;;;25.77;0.00
23318;BME280;11831;55.918;37.746;2022-07-17T10:45:27;99276.34;;;26.77;0.00
23318;BME280;11831;55.918;37.746;2022-07-17T10:47:57;99269.59;;;27.32;0.00
23318;BME280;11831;55.918;37.746;2022-07-17T10:50:25;99275.75;;;27.41;0.00
23318;BME280;11831;55.918;37.746;2022-07-17T10:52:57;99276.41;;;27.50;0.00
23318;BME280;11831;55.918;37.746;2022-07-17T10:55:24;99274.03;;;27.73;0.00
23318;BME280;11831;55.918;37.746;2022-07-17T10:57:50;99274.38;;;27.72;0.00
23318;BME280;11831;55.918;37.746;2022-07-17T11:00:16;99270.13;;;27.50;0.00
23318;BME280;11831;55.918;37.746;2022-07-17T11:02:43;99277.59;;;27.62;0.00
23318;BME280;11831;55.918;37.746;2022-07-17T11:05:10;99270.47;;;27.24;0.00
23318;BME280;11831;55.918;37.746;2022-07-17T11:07:53;99268.63;;;27.89;0.00
23318;BME280;11831;55.918;37.746;2022-07-17T11:10:20;99272.31;;;27.57;0.00
23318;BME280;11831;55.918;37.746;2022-07-17T11:12:47;99258.59;;;28.49;0.00
23318;BME280;11831;55.918;37.746;2022-07-17T11:15:13;99254.87;;;29.01;0.00
23318;BME280;11831;55.918;37.746;2022-07-17T11:17:43;99258.91;;;29.38;0.00
23318;BME280;11831;55.918;37.746;2022-07-17T11:20:09;99247.81;;;29.35;0.00
23318;BME280;11831;55.918;37.746;2022-07-17T11:22:36;99236.22;;;29.96;0.00
23318;BME280;11831;55.918;37.746;2022-07-17T11:25:03;99238.63;;;28.96;0.00
23318;BME280;11831;55.918;37.746;2022-07-17T11:27:30;99237.19;;;29.02;0.00
23318;BME280;11831;55.918;37.746;2022-07-17T11:29:57;99234.09;;;29.03;0.00
23318;BME280;11831;55.918;37.746;2022-07-17T11:32:30;99255.34;;;28.31;0.00
23318;BME280;11831;55.918;37.746;2022-07-17T11:34:57;99256.66;;;29.09;0.00
23318;BME280;11831;55.918;37.746;2022-07-17T11:37:25;99259.75;;;29.23;0.00
23318;BME280;11831;55.918;37.746;2022-07-17T11:39:53;99261.56;;;28.28;0.00
23318;BME280;11831;55.918;37.746;2022-07-17T11:42:21;99248.38;;;30.11;0.00
23318;BME280;11831;55.918;37.746;2022-07-17T11:44:51;99258.44;;;28.73;0.00
23318;BME280;11831;55.918;37.746;2022-07-17T11:47:24;99243.34;;;28.24;0.00
23318;BME280;11831;55.918;37.746;2022-07-17T11:49:52;99241.22;;;27.65;0.00
23318;BME280;11831;55.918;37.746;2022-07-17T11:52:38;99239.37;;;27.20;0.00
23318;BME280;11831;55.918;37.746;2022-07-17T11:55:05;99243.69;;;27.82;0.00
23318;BME280;11831;55.918;37.746;2022-07-17T11:57:40;99230.87;;;27.74;0.00
23318;BME280;11831;55.918;37.746;2022-07-17T12:00:07;99217.53;;;27.36;0.00
23318;BME280;11831;55.918;37.746;2022-07-17T12:02:37;99224.78;;;26.71;0.00
23318;BME280;11831;55.918;37.746;2022-07-17T12:05:03;99234.00;;;27.48;0.00
23318;BME280;11831;55.918;37.746;2022-07-17T12:07:40;99235.94;;;27.47;0.00
23318;BME280;11831;55.918;37.746;2022-07-17T12:10:13;99231.53;;;28.23;0.00
23318;BME280;11831;55.918;37.746;2022-07-17T12:12:40;99228.38;;;27.44;0.00
23318;BME280;11831;55.918;37.746;2022-07-17T12:15:06;99228.00;;;27.82;0.00
23318;BME280;11831;55.918;37.746;2022-07-17T12:17:38;99228.63;;;27.64;0.00
23318;BME280;11831;55.918;37.746;2022-07-17T12:20:05;99231.25;;;27.72;0.00
23318;BME280;11831;55.918;37.746;2022-07-17T12:22:47;99232.34;;;28.24;0.00
23318;BME280;11831;55.918;37.746;2022-07-17T12:25:27;99235.53;;;28.54;0.00
23318;BME280;11831;55.918;37.746;2022-07-17T12:27:54;99230.78;;;27.58;0.00
23318;BME280;11831;55.918;37.746;2022-07-17T12:30:20;99225.75;;;27.60;0.00
23318;BME280;11831;55.918;37.746;2022-07-17T12:32:47;99236.81;;;27.88;0.00
23318;BME280;11831;55.918;37.746;2022-07-17T12:35:14;99232.38;;;26.98;0.00
23318;BME280;11831;55.918;37.746;2022-07-17T12:37:40;99225.66;;;27.20;0.00
23318;BME280;11831;55.918;37.746;2022-07-17T12:40:06;99232.50;;;27.50;0.00
23318;BME280;11831;55.918;37.746;2022-07-17T12:42:33;99232.28;;;28.08;0.00
23318;BME280;11831;55.918;37.746;2022-07-17T12:44:59;99226.28;;;29.05;0.00
23318;BME280;11831;55.918;37.746;2022-07-17T12:47:25;99220.78;;;30.30;0.00
23318;BME280;11831;55.918;37.746;2022-07-17T12:49:51;99229.56;;;32.36;0.00
23318;BME280;11831;55.918;37.746;2022-07-17T12:52:17;99220.94;;;32.79;0.00
23318;BME280;11831;55.918;37.746;2022-07-17T12:54:43;99209.34;;;33.69;0.00
23318;BME280;11831;55.918;37.746;2022-07-17T12:57:09;99207.31;;;34.81;41.25
23318;BME280;11831;55.918;37.746;2022-07-17T12:59:35;99218.38;;;34.49;40.73
23318;BME280;11831;55.918;37.746;2022-07-17T13:02:01;99199.53;;;33.27;0.00
23318;BME280;11831;55.918;37.746;2022-07-17T13:04:27;99215.06;;;32.87;0.00